Spring Valley, Minnesota
Current Conditions -  °F | °C
As of 11:35 PM on Friday 24 Oct 2014 (Local Time) from KFKA Reporting Station
Moderate Fog Moderate Fog  
Wind Chill: 55°   Ceiling: 100
Heat Index: 55°   Visibility: 0.25mi
Dew Point: 54°   Wind: 7mph
Humidity: 97%   Direction: 230°SW
Pressure: 29.92"   Gusts: NA
Location:  43.69°N, 92.39°W
Report Text: KFKA 250435Z AUTO 23006KT 1/4SM FG OVC001 13/12 A2992 RMK AO2 T01250121
Loading
Personal Weather Stations






























Interactive Weather Map
Tropical Storm Tracking
New forecast layout! Learn more

10-Day Weather Forecast

Advertisements
Track Severe Weather on mobile